createdAt,value
2023-03-22T00:01:14.270Z,91.37
2023-03-22T00:03:42.210Z,91.57
2023-03-22T00:06:09.662Z,91.56
2023-03-22T00:08:36.859Z,91.35
2023-03-22T00:11:05.019Z,91.02
2023-03-22T00:13:35.389Z,91.12
2023-03-22T00:16:03.187Z,91.32
2023-03-22T00:18:30.744Z,91.88
2023-03-22T00:20:59.752Z,91.97
2023-03-22T00:23:28.566Z,92.20
2023-03-22T00:25:56.220Z,92.18
2023-03-22T00:28:24.420Z,92.20
2023-03-22T00:30:54.549Z,92.41
2023-03-22T00:33:21.792Z,92.12
2023-03-22T00:35:59.141Z,92.31
2023-03-22T00:38:45.185Z,92.15
2023-03-22T00:41:23.390Z,92.20
2023-03-22T00:43:51.826Z,91.53
2023-03-22T00:46:21.317Z,92.15
2023-03-22T00:48:49.071Z,91.89
2023-03-22T00:51:16.541Z,91.68
2023-03-22T00:53:43.885Z,91.18
2023-03-22T00:56:16.339Z,90.78
2023-03-22T00:58:43.850Z,90.90
2023-03-22T01:01:14.492Z,91.10
2023-03-22T01:03:42.241Z,90.65
2023-03-22T01:06:12.611Z,91.08
2023-03-22T01:08:47.028Z,91.28
2023-03-22T01:11:19.049Z,91.48
2023-03-22T01:14:00.511Z,91.61
2023-03-22T01:16:30.127Z,91.72
2023-03-22T01:18:59.289Z,91.88
2023-03-22T01:21:30.994Z,92.06
2023-03-22T01:23:57.757Z,92.33
2023-03-22T01:26:24.625Z,92.40
2023-03-22T01:28:51.432Z,92.30
2023-03-22T01:31:18.325Z,92.14
2023-03-22T01:33:45.113Z,91.87
2023-03-22T01:36:12.014Z,92.01
2023-03-22T01:38:38.839Z,92.42
2023-03-22T01:41:06.151Z,92.90
2023-03-22T01:43:33.020Z,93.14
2023-03-22T01:45:59.929Z,92.86
2023-03-22T01:48:28.762Z,92.68
2023-03-22T01:51:12.359Z,92.60
2023-03-22T01:53:52.200Z,92.56
2023-03-22T01:56:22.842Z,92.86
2023-03-22T01:58:50.948Z,93.21
2023-03-22T02:01:17.958Z,92.80
2023-03-22T02:03:56.151Z,92.57
2023-03-22T02:06:29.606Z,92.50
2023-03-22T02:08:58.876Z,92.73
2023-03-22T02:11:33.001Z,93.44
2023-03-22T02:14:10.641Z,93.46
2023-03-22T02:16:46.790Z,93.75
2023-03-22T02:20:13.412Z,94.19
2023-03-22T02:23:06.193Z,94.47
2023-03-22T02:26:05.241Z,94.50
2023-03-22T02:28:38.153Z,94.57
2023-03-22T02:31:05.097Z,94.91
2023-03-22T02:33:50.841Z,95.00
2023-03-22T02:36:36.170Z,94.72
2023-03-22T02:39:27.755Z,94.80
2023-03-22T02:41:57.321Z,95.06
2023-03-22T02:44:36.650Z,95.59
2023-03-22T02:47:12.213Z,95.37
2023-03-22T02:49:52.440Z,95.56
2023-03-22T02:52:40.604Z,96.28
2023-03-22T02:55:33.885Z,96.70
2023-03-22T02:58:19.586Z,96.40
2023-03-22T03:00:51.293Z,96.38
2023-03-22T03:03:20.188Z,96.28
2023-03-22T03:05:56.099Z,96.21
2023-03-22T03:08:25.865Z,96.02
2023-03-22T03:10:54.819Z,95.87
2023-03-22T03:13:21.695Z,95.42
2023-03-22T03:15:57.631Z,95.51
2023-03-22T03:18:46.458Z,95.47
2023-03-22T03:21:36.900Z,95.53
2023-03-22T03:24:18.844Z,95.45
2023-03-22T03:26:48.840Z,95.77
2023-03-22T03:29:24.670Z,96.33
2023-03-22T03:32:20.297Z,96.52
2023-03-22T03:34:57.531Z,96.25
2023-03-22T03:37:47.560Z,96.22
2023-03-22T03:40:33.947Z,95.77
2023-03-22T03:43:04.341Z,95.62
2023-03-22T03:45:31.259Z,95.81
2023-03-22T03:48:01.654Z,96.35
2023-03-22T03:50:29.250Z,96.38
2023-03-22T03:52:56.327Z,96.83
2023-03-22T03:55:24.894Z,96.52
2023-03-22T03:58:03.762Z,95.99
2023-03-22T04:00:31.423Z,95.65
2023-03-22T04:02:58.279Z,95.99
2023-03-22T04:05:25.228Z,96.03
2023-03-22T04:07:52.125Z,95.94
2023-03-22T04:10:18.983Z,95.91
2023-03-22T04:12:45.943Z,95.93
2023-03-22T04:15:13.472Z,95.79
2023-03-22T04:17:40.908Z,95.92
2023-03-22T04:20:11.218Z,96.20
2023-03-22T04:22:39.456Z,95.90
2023-03-22T04:25:12.941Z,96.04
2023-03-22T04:27:40.935Z,96.92
2023-03-22T04:30:11.625Z,97.51
2023-03-22T04:32:39.711Z,98.41
2023-03-22T04:35:06.819Z,98.34
2023-03-22T04:37:34.102Z,98.58
2023-03-22T04:40:01.229Z,98.31
2023-03-22T04:42:28.203Z,98.18
2023-03-22T04:44:55.059Z,98.10
2023-03-22T04:47:37.767Z,98.12
2023-03-22T04:50:06.674Z,97.75
2023-03-22T04:52:33.714Z,97.68
2023-03-22T04:55:00.770Z,97.92
2023-03-22T04:57:27.631Z,97.87
2023-03-22T04:59:54.611Z,97.68
2023-03-22T05:02:21.609Z,97.56
2023-03-22T05:04:48.602Z,97.35
2023-03-22T05:07:15.624Z,97.10
2023-03-22T05:09:42.533Z,96.83
2023-03-22T05:12:09.471Z,96.88
2023-03-22T05:14:36.850Z,96.70
2023-03-22T05:17:04.045Z,96.23
2023-03-22T05:19:31.793Z,96.29
2023-03-22T05:22:02.288Z,96.55
2023-03-22T05:24:30.535Z,96.73
2023-03-22T05:27:01.354Z,96.17
2023-03-22T05:29:29.002Z,95.61
2023-03-22T05:31:55.879Z,96.11
2023-03-22T05:34:23.306Z,95.81
2023-03-22T05:36:51.825Z,96.28
2023-03-22T05:39:18.762Z,95.82
2023-03-22T05:41:46.867Z,95.35
2023-03-22T05:44:13.881Z,95.08
2023-03-22T05:46:41.124Z,95.55
2023-03-22T05:49:08.239Z,95.81
2023-03-22T05:51:41.941Z,95.81
2023-03-22T05:54:09.875Z,95.77
2023-03-22T05:56:36.946Z,95.08
2023-03-22T05:59:04.980Z,95.19
2023-03-22T06:01:33.848Z,94.58
2023-03-22T06:04:01.267Z,94.77
2023-03-22T06:06:28.608Z,95.12
2023-03-22T06:09:04.288Z,95.53
2023-03-22T06:11:41.554Z,95.07
2023-03-22T06:14:08.615Z,94.46
2023-03-22T06:16:35.955Z,94.11
2023-03-22T06:19:03.031Z,93.49
2023-03-22T06:21:29.879Z,93.12
2023-03-22T06:23:56.737Z,93.02
2023-03-22T06:26:23.673Z,92.67
2023-03-22T06:28:50.544Z,92.07
2023-03-22T06:31:17.515Z,91.85
2023-03-22T06:33:45.796Z,91.49
2023-03-22T06:36:12.679Z,91.64
2023-03-22T06:38:39.674Z,91.34
2023-03-22T06:41:06.736Z,91.05
2023-03-22T06:43:33.663Z,90.88
2023-03-22T06:46:01.201Z,90.97
2023-03-22T06:48:28.515Z,91.39
2023-03-22T06:50:55.500Z,91.95
2023-03-22T06:53:22.440Z,92.04
2023-03-22T06:55:49.432Z,91.82
2023-03-22T06:58:16.268Z,91.61
2023-03-22T07:00:46.946Z,91.17
2023-03-22T07:03:13.820Z,90.98
2023-03-22T07:05:41.056Z,90.23
2023-03-22T07:08:07.952Z,89.32
2023-03-22T07:10:34.893Z,88.09
2023-03-22T07:13:03.529Z,88.76
2023-03-22T07:15:31.277Z,87.92
2023-03-22T07:17:58.262Z,87.47
2023-03-22T07:20:25.249Z,86.95
2023-03-22T07:22:52.201Z,86.93
2023-03-22T07:25:19.699Z,87.54
2023-03-22T07:27:46.740Z,88.08
2023-03-22T07:30:24.676Z,87.71
2023-03-22T07:32:51.565Z,86.38
2023-03-22T07:35:19.242Z,86.11
2023-03-22T07:37:46.204Z,84.86
2023-03-22T07:40:14.126Z,84.37
2023-03-22T07:42:41.147Z,84.69
2023-03-22T07:45:08.877Z,84.68
2023-03-22T07:47:41.240Z,83.75
2023-03-22T07:50:10.376Z,83.08
2023-03-22T07:52:37.489Z,82.58
2023-03-22T07:55:05.316Z,81.69
2023-03-22T07:57:32.232Z,82.28
2023-03-22T07:59:59.378Z,81.85
2023-03-22T08:02:26.536Z,80.47
2023-03-22T08:04:56.634Z,81.49
2023-03-22T08:07:25.711Z,81.29
2023-03-22T08:09:52.622Z,81.25
2023-03-22T08:12:20.115Z,81.12
2023-03-22T08:14:50.816Z,80.67
2023-03-22T08:17:19.096Z,80.99
2023-03-22T08:19:46.708Z,80.08
2023-03-22T08:22:15.800Z,78.47
2023-03-22T08:24:42.944Z,78.39
2023-03-22T08:27:09.883Z,78.27
2023-03-22T08:29:37.616Z,78.32
2023-03-22T08:32:06.103Z,78.18
2023-03-22T08:34:37.732Z,78.21
2023-03-22T08:37:06.700Z,78.08
2023-03-22T08:39:44.262Z,78.39
2023-03-22T08:42:11.249Z,76.99
2023-03-22T08:44:38.178Z,76.70
2023-03-22T08:47:05.260Z,76.20
2023-03-22T08:49:32.682Z,75.92
2023-03-22T08:51:59.652Z,75.29
2023-03-22T08:54:28.392Z,76.12
2023-03-22T08:56:55.510Z,76.06
2023-03-22T08:59:24.425Z,75.09
2023-03-22T09:01:51.447Z,74.20
2023-03-22T09:04:18.645Z,74.44
2023-03-22T09:06:47.386Z,74.07
2023-03-22T09:09:14.308Z,72.34
2023-03-22T09:11:43.104Z,72.39
2023-03-22T09:14:11.179Z,72.47
2023-03-22T09:16:38.412Z,72.19
2023-03-22T09:19:06.967Z,70.19
2023-03-22T09:21:34.067Z,70.13
2023-03-22T09:24:01.212Z,70.16
2023-03-22T09:26:28.222Z,69.61
2023-03-22T09:28:55.918Z,69.53
2023-03-22T09:31:22.868Z,70.54
2023-03-22T09:33:49.964Z,69.07
2023-03-22T09:36:16.966Z,70.06
2023-03-22T09:38:43.988Z,70.81
2023-03-22T09:41:23.277Z,70.25
2023-03-22T09:43:57.532Z,68.24
2023-03-22T09:46:32.578Z,68.70
2023-03-22T09:49:03.404Z,68.23
2023-03-22T09:51:42.753Z,66.87
2023-03-22T09:54:19.967Z,65.89
2023-03-22T09:56:54.751Z,65.20
2023-03-22T09:59:33.396Z,65.64
2023-03-22T10:02:05.574Z,64.21
2023-03-22T10:04:51.312Z,65.78
2023-03-22T10:07:39.602Z,64.39
2023-03-22T10:10:13.255Z,64.65
2023-03-22T10:12:42.937Z,65.95
2023-03-22T10:15:50.481Z,64.19
2023-03-22T10:18:39.317Z,64.17
2023-03-22T10:21:12.436Z,63.91
2023-03-22T10:23:55.900Z,63.36
2023-03-22T10:26:40.223Z,63.93
2023-03-22T10:29:22.479Z,64.14
2023-03-22T10:31:50.081Z,64.45
2023-03-22T10:34:24.606Z,64.28
2023-03-22T10:36:53.579Z,62.77
2023-03-22T10:39:43.402Z,63.06
2023-03-22T10:42:21.872Z,63.00
2023-03-22T10:44:54.186Z,63.64
2023-03-22T10:47:31.947Z,63.14
2023-03-22T10:50:03.907Z,60.52
2023-03-22T10:52:31.008Z,61.41
2023-03-22T10:55:03.052Z,60.62
2023-03-22T10:57:31.479Z,60.26
2023-03-22T10:59:59.148Z,60.29
2023-03-22T11:02:31.069Z,59.02
2023-03-22T11:05:01.391Z,59.03
2023-03-22T11:07:38.833Z,56.31
2023-03-22T11:10:09.225Z,55.43
2023-03-22T11:13:12.103Z,53.06
2023-03-22T11:15:52.249Z,51.81
2023-03-22T11:18:20.592Z,52.32
2023-03-22T11:21:06.305Z,53.33
2023-03-22T11:23:35.705Z,52.25
2023-03-22T11:26:10.443Z,50.32
2023-03-22T11:28:48.050Z,49.99
2023-03-22T11:31:18.338Z,46.40
2023-03-22T11:34:16.404Z,48.01
2023-03-22T11:36:51.726Z,47.76
2023-03-22T11:39:19.092Z,46.80
2023-03-22T11:41:46.586Z,45.77
2023-03-22T11:44:18.408Z,44.41
2023-03-22T11:46:53.243Z,45.44
2023-03-22T11:49:24.826Z,43.96
2023-03-22T11:51:53.628Z,43.15
2023-03-22T11:54:32.103Z,41.57
2023-03-22T11:57:04.192Z,41.50
2023-03-22T11:59:38.831Z,40.36
2023-03-22T12:02:36.819Z,41.49
2023-03-22T12:05:40.387Z,40.44
2023-03-22T12:08:26.259Z,39.84
2023-03-22T12:11:22.103Z,40.17
2023-03-22T12:13:54.811Z,39.39
2023-03-22T12:16:28.719Z,38.89
2023-03-22T12:19:11.046Z,39.60
2023-03-22T12:21:38.377Z,39.10
2023-03-22T12:24:26.032Z,36.91
2023-03-22T12:26:58.530Z,38.16
2023-03-22T12:29:26.661Z,36.79
2023-03-22T12:32:07.480Z,37.45
2023-03-22T12:34:45.433Z,37.00
2023-03-22T12:37:17.556Z,36.93
2023-03-22T12:39:54.632Z,36.57
2023-03-22T12:42:47.919Z,35.91
2023-03-22T12:45:24.063Z,36.68
2023-03-22T12:48:28.514Z,36.23
2023-03-22T12:51:06.831Z,35.40
2023-03-22T12:53:43.079Z,35.14
2023-03-22T12:56:14.792Z,34.38
2023-03-22T12:58:46.500Z,35.19
2023-03-22T13:01:30.866Z,33.99
2023-03-22T13:03:59.820Z,34.25
2023-03-22T13:06:33.120Z,33.96
2023-03-22T13:09:20.499Z,34.28
2023-03-22T13:12:08.905Z,34.06
2023-03-22T13:14:51.601Z,33.66
2023-03-22T13:17:25.180Z,34.65
2023-03-22T13:20:24.400Z,34.19
2023-03-22T13:22:51.706Z,34.08
2023-03-22T13:25:23.318Z,34.06
2023-03-22T13:27:57.809Z,33.64
2023-03-22T13:30:32.793Z,33.51
2023-03-22T13:33:11.282Z,33.35
2023-03-22T13:35:46.807Z,33.10
2023-03-22T13:38:35.034Z,33.47
2023-03-22T13:41:04.181Z,33.48
2023-03-22T13:43:47.729Z,34.01
2023-03-22T13:46:43.775Z,33.91
2023-03-22T13:49:28.233Z,34.13
2023-03-22T13:52:00.947Z,34.97
2023-03-22T13:54:39.379Z,36.63
2023-03-22T13:57:20.980Z,36.14
2023-03-22T14:00:15.759Z,37.38
2023-03-22T14:02:45.489Z,38.49
2023-03-22T14:05:22.519Z,38.34
2023-03-22T14:07:56.509Z,39.72
2023-03-22T14:10:31.598Z,39.54
2023-03-22T14:13:04.288Z,40.08
2023-03-22T14:15:39.034Z,40.40
2023-03-22T14:18:32.277Z,40.83
2023-03-22T14:21:03.970Z,40.71
